This is the latest recevied weather packets stored in our database for station/object K7SFN. If no packets are shown the sender has not sent any weather packets the latest 10 day(s).
| Time | Temp. | Humidity | Pressure | Rain* | Wind** | Luminosity | Snow |
|---|---|---|---|---|---|---|---|
| 1777314604 | 10.56° C | 42% | 1014.5 hPa | 0 mm | - | - | - |
| 1777313704 | 11.11° C | 42% | 1014.4 hPa | 0 mm | - | - | - |
| 1777312804 | 11.67° C | 40% | 1014.4 hPa | 0 mm | - | - | - |
| 1777311604 | 10.56° C | 43% | 1014.3 hPa | 0 mm | - | - | - |
| 1777309804 | 10° C | 48% | 1013.9 hPa | 0 mm | - | - | - |
| 1777307404 | 9.44° C | 50% | 1013.9 hPa | 0 mm | - | - | - |
| 1777304105 | 6.67° C | 60% | 1014.2 hPa | 0 mm | - | - | - |
| 1777302005 | 3.89° C | 74% | 1014.4 hPa | 0 mm | - | - | - |
| 1777300205 | 2.22° C | 79% | 1014.4 hPa | 0 mm | - | - | - |
| 1777299004 | 1.67° C | 82% | 1014.7 hPa | 0 mm | - | - | - |
| 1777297205 | 1.11° C | 85% | 1014.3 hPa | 0 mm | - | - | - |
| 1777295404 | 1.67° C | 81% | 1014.1 hPa | 0 mm | - | - | - |
| 1777293904 | 1.67° C | 80% | 1013.8 hPa | 0 mm | - | - | - |
| 1777293305 | 2.22° C | 79% | 1013.8 hPa | 0 mm | - | - | - |
| 1777291505 | 2.78° C | 77% | 1013.6 hPa | 0 mm | - | - | - |
| 1777290604 | 2.78° C | 77% | 1013.6 hPa | 0 mm | - | - | - |
| 1777288805 | 3.33° C | 76% | 1013.5 hPa | 0 mm | - | - | - |
| 1777288205 | 3.33° C | 75% | 1013.4 hPa | 0 mm | - | - | - |
| 1777278604 | 3.89° C | 72% | 1013.1 hPa | 0 mm | - | - | - |
| 1777276804 | 4.44° C | 68% | 1013.1 hPa | 0 mm | - | - | - |
| 1777275004 | 4.44° C | 69% | 1013 hPa | 0 mm | - | - | - |
| 1777274705 | 4.44° C | 69% | 1013 hPa | 0 mm | - | - | - |
| 1777272904 | 4.44° C | 69% | 1012.7 hPa | 0 mm | - | - | - |
| 1777270505 | 3.89° C | 70% | 1012.3 hPa | 0 mm | - | - | - |
| 1777269905 | 3.33° C | 72% | 1012.3 hPa | 0 mm | - | - | - |
* Rain latest hour (hover to see other rain measurements)
** Current wind speed in m/s (hover to see current wind gust speed)